sensor_id;sensor_type;location;lat;lon;timestamp;P1;durP1;ratioP1;P2;durP2;ratioP2
1577;SDS011;57623;53.608;10.004;2023-05-06T00:00:34;5.20;;;4.23;;
1577;SDS011;57623;53.608;10.004;2023-05-06T00:03:03;5.63;;;4.57;;
1577;SDS011;57623;53.608;10.004;2023-05-06T00:05:31;5.13;;;4.33;;
1577;SDS011;57623;53.608;10.004;2023-05-06T00:08:00;5.47;;;4.70;;
1577;SDS011;57623;53.608;10.004;2023-05-06T00:10:28;6.87;;;5.00;;
1577;SDS011;57623;53.608;10.004;2023-05-06T00:12:56;5.07;;;4.57;;
1577;SDS011;57623;53.608;10.004;2023-05-06T00:15:24;5.97;;;4.60;;
1577;SDS011;57623;53.608;10.004;2023-05-06T00:17:55;5.87;;;4.70;;
1577;SDS011;57623;53.608;10.004;2023-05-06T00:20:23;5.73;;;4.40;;
1577;SDS011;57623;53.608;10.004;2023-05-06T00:22:51;5.40;;;4.60;;
1577;SDS011;57623;53.608;10.004;2023-05-06T00:25:20;5.63;;;4.50;;
1577;SDS011;57623;53.608;10.004;2023-05-06T00:27:48;4.70;;;4.20;;
1577;SDS011;57623;53.608;10.004;2023-05-06T00:30:17;4.47;;;3.73;;
1577;SDS011;57623;53.608;10.004;2023-05-06T00:32:45;7.13;;;4.33;;
1577;SDS011;57623;53.608;10.004;2023-05-06T00:35:13;7.70;;;4.63;;
1577;SDS011;57623;53.608;10.004;2023-05-06T00:37:43;6.03;;;4.90;;
1577;SDS011;57623;53.608;10.004;2023-05-06T00:40:12;6.03;;;4.30;;
1577;SDS011;57623;53.608;10.004;2023-05-06T00:42:41;5.93;;;4.83;;
1577;SDS011;57623;53.608;10.004;2023-05-06T00:45:10;7.30;;;4.47;;
1577;SDS011;57623;53.608;10.004;2023-05-06T00:47:38;8.17;;;5.50;;
1577;SDS011;57623;53.608;10.004;2023-05-06T00:50:06;8.30;;;4.17;;
1577;SDS011;57623;53.608;10.004;2023-05-06T00:52:35;10.40;;;5.20;;
1577;SDS011;57623;53.608;10.004;2023-05-06T00:55:03;5.17;;;4.63;;
1577;SDS011;57623;53.608;10.004;2023-05-06T00:57:31;6.13;;;4.40;;
1577;SDS011;57623;53.608;10.004;2023-05-06T01:00:01;5.30;;;4.30;;
1577;SDS011;57623;53.608;10.004;2023-05-06T01:02:29;6.20;;;5.07;;
1577;SDS011;57623;53.608;10.004;2023-05-06T01:05:12;4.67;;;4.27;;
1577;SDS011;57623;53.608;10.004;2023-05-06T01:07:44;5.17;;;4.30;;
1577;SDS011;57623;53.608;10.004;2023-05-06T01:10:20;9.60;;;5.30;;
1577;SDS011;57623;53.608;10.004;2023-05-06T01:12:55;7.87;;;5.17;;
1577;SDS011;57623;53.608;10.004;2023-05-06T01:15:32;7.03;;;5.00;;
1577;SDS011;57623;53.608;10.004;2023-05-06T01:18:03;7.97;;;5.40;;
1577;SDS011;57623;53.608;10.004;2023-05-06T01:20:35;7.93;;;5.20;;
1577;SDS011;57623;53.608;10.004;2023-05-06T01:23:09;7.30;;;4.67;;
1577;SDS011;57623;53.608;10.004;2023-05-06T01:25:38;6.60;;;4.87;;
1577;SDS011;57623;53.608;10.004;2023-05-06T01:28:06;5.93;;;5.30;;
1577;SDS011;57623;53.608;10.004;2023-05-06T01:30:38;5.93;;;4.63;;
1577;SDS011;57623;53.608;10.004;2023-05-06T01:33:13;4.53;;;4.13;;
1577;SDS011;57623;53.608;10.004;2023-05-06T01:35:49;6.90;;;4.90;;
1577;SDS011;57623;53.608;10.004;2023-05-06T01:38:28;8.17;;;5.57;;
1577;SDS011;57623;53.608;10.004;2023-05-06T01:41:01;5.53;;;4.90;;
1577;SDS011;57623;53.608;10.004;2023-05-06T01:43:31;7.13;;;4.77;;
1577;SDS011;57623;53.608;10.004;2023-05-06T01:46:03;8.87;;;5.47;;
1577;SDS011;57623;53.608;10.004;2023-05-06T01:48:33;5.60;;;5.10;;
1577;SDS011;57623;53.608;10.004;2023-05-06T01:51:05;6.20;;;5.07;;
1577;SDS011;57623;53.608;10.004;2023-05-06T01:53:34;7.00;;;5.13;;
1577;SDS011;57623;53.608;10.004;2023-05-06T01:56:03;7.80;;;5.80;;
1577;SDS011;57623;53.608;10.004;2023-05-06T01:58:32;7.43;;;5.87;;
1577;SDS011;57623;53.608;10.004;2023-05-06T02:01:02;6.00;;;5.40;;
1577;SDS011;57623;53.608;10.004;2023-05-06T02:03:30;6.43;;;5.40;;
1577;SDS011;57623;53.608;10.004;2023-05-06T02:06:03;7.40;;;5.57;;
1577;SDS011;57623;53.608;10.004;2023-05-06T02:08:31;11.60;;;5.80;;
1577;SDS011;57623;53.608;10.004;2023-05-06T02:11:00;7.90;;;6.27;;
1577;SDS011;57623;53.608;10.004;2023-05-06T02:13:28;5.83;;;5.20;;
1577;SDS011;57623;53.608;10.004;2023-05-06T02:15:56;7.40;;;6.27;;
1577;SDS011;57623;53.608;10.004;2023-05-06T02:18:24;5.90;;;5.30;;
1577;SDS011;57623;53.608;10.004;2023-05-06T02:20:52;8.00;;;5.83;;
1577;SDS011;57623;53.608;10.004;2023-05-06T02:23:20;6.60;;;5.90;;
1577;SDS011;57623;53.608;10.004;2023-05-06T02:25:48;6.60;;;6.00;;
1577;SDS011;57623;53.608;10.004;2023-05-06T02:28:18;7.80;;;6.10;;
1577;SDS011;57623;53.608;10.004;2023-05-06T02:30:46;6.33;;;5.73;;
1577;SDS011;57623;53.608;10.004;2023-05-06T02:33:14;6.93;;;6.27;;
1577;SDS011;57623;53.608;10.004;2023-05-06T02:35:42;6.47;;;5.90;;
1577;SDS011;57623;53.608;10.004;2023-05-06T02:38:10;8.97;;;6.20;;
1577;SDS011;57623;53.608;10.004;2023-05-06T02:40:38;6.93;;;5.70;;
1577;SDS011;57623;53.608;10.004;2023-05-06T02:43:05;7.90;;;7.10;;
1577;SDS011;57623;53.608;10.004;2023-05-06T02:45:35;6.87;;;6.13;;
1577;SDS011;57623;53.608;10.004;2023-05-06T02:48:03;6.80;;;6.13;;
1577;SDS011;57623;53.608;10.004;2023-05-06T02:50:32;8.03;;;6.47;;
1577;SDS011;57623;53.608;10.004;2023-05-06T02:53:01;8.13;;;6.90;;
1577;SDS011;57623;53.608;10.004;2023-05-06T02:55:29;6.67;;;6.00;;
1577;SDS011;57623;53.608;10.004;2023-05-06T02:57:57;6.83;;;6.10;;
1577;SDS011;57623;53.608;10.004;2023-05-06T03:00:28;7.23;;;6.33;;
1577;SDS011;57623;53.608;10.004;2023-05-06T03:02:57;7.40;;;6.70;;
1577;SDS011;57623;53.608;10.004;2023-05-06T03:05:25;6.27;;;5.67;;
1577;SDS011;57623;53.608;10.004;2023-05-06T03:07:53;6.73;;;6.00;;
1577;SDS011;57623;53.608;10.004;2023-05-06T03:10:21;7.00;;;6.30;;
1577;SDS011;57623;53.608;10.004;2023-05-06T03:12:49;7.50;;;6.87;;
1577;SDS011;57623;53.608;10.004;2023-05-06T03:15:17;8.90;;;6.90;;
1577;SDS011;57623;53.608;10.004;2023-05-06T03:17:45;7.77;;;6.90;;
1577;SDS011;57623;53.608;10.004;2023-05-06T03:20:15;8.00;;;6.60;;
1577;SDS011;57623;53.608;10.004;2023-05-06T03:22:43;7.40;;;6.50;;
1577;SDS011;57623;53.608;10.004;2023-05-06T03:25:11;6.90;;;6.20;;
1577;SDS011;57623;53.608;10.004;2023-05-06T03:27:39;7.60;;;6.50;;
1577;SDS011;57623;53.608;10.004;2023-05-06T03:30:07;7.20;;;6.50;;
1577;SDS011;57623;53.608;10.004;2023-05-06T03:32:36;7.80;;;6.47;;
1577;SDS011;57623;53.608;10.004;2023-05-06T03:35:04;9.13;;;6.97;;
1577;SDS011;57623;53.608;10.004;2023-05-06T03:37:35;9.23;;;5.87;;
1577;SDS011;57623;53.608;10.004;2023-05-06T03:40:03;7.50;;;6.30;;
1577;SDS011;57623;53.608;10.004;2023-05-06T03:42:32;7.33;;;6.63;;
1577;SDS011;57623;53.608;10.004;2023-05-06T03:45:00;8.40;;;6.50;;
1577;SDS011;57623;53.608;10.004;2023-05-06T03:47:31;8.43;;;7.67;;
1577;SDS011;57623;53.608;10.004;2023-05-06T03:49:59;7.93;;;6.83;;
1577;SDS011;57623;53.608;10.004;2023-05-06T03:52:28;7.67;;;6.97;;
1577;SDS011;57623;53.608;10.004;2023-05-06T03:54:57;6.67;;;6.03;;
1577;SDS011;57623;53.608;10.004;2023-05-06T03:57:25;6.97;;;6.37;;
1577;SDS011;57623;53.608;10.004;2023-05-06T03:59:53;8.37;;;6.33;;
1577;SDS011;57623;53.608;10.004;2023-05-06T04:02:21;7.77;;;6.97;;
1577;SDS011;57623;53.608;10.004;2023-05-06T04:04:49;7.03;;;6.33;;
1577;SDS011;57623;53.608;10.004;2023-05-06T04:07:20;6.73;;;6.13;;
1577;SDS011;57623;53.608;10.004;2023-05-06T04:09:48;7.13;;;6.40;;
1577;SDS011;57623;53.608;10.004;2023-05-06T04:12:17;7.57;;;6.67;;
1577;SDS011;57623;53.608;10.004;2023-05-06T04:14:46;7.03;;;6.33;;
1577;SDS011;57623;53.608;10.004;2023-05-06T04:17:14;7.67;;;6.97;;
1577;SDS011;57623;53.608;10.004;2023-05-06T04:19:42;9.87;;;7.20;;
1577;SDS011;57623;53.608;10.004;2023-05-06T04:22:10;8.70;;;6.13;;
1577;SDS011;57623;53.608;10.004;2023-05-06T04:24:38;6.63;;;6.10;;
1577;SDS011;57623;53.608;10.004;2023-05-06T04:27:07;6.93;;;6.23;;
1577;SDS011;57623;53.608;10.004;2023-05-06T04:29:36;7.37;;;6.67;;
1577;SDS011;57623;53.608;10.004;2023-05-06T04:32:04;7.67;;;6.87;;
1577;SDS011;57623;53.608;10.004;2023-05-06T04:34:33;7.20;;;6.23;;
1577;SDS011;57623;53.608;10.004;2023-05-06T04:37:01;8.20;;;6.40;;
1577;SDS011;57623;53.608;10.004;2023-05-06T04:39:30;7.80;;;7.03;;
1577;SDS011;57623;53.608;10.004;2023-05-06T04:41:58;6.40;;;5.80;;
1577;SDS011;57623;53.608;10.004;2023-05-06T04:44:27;7.20;;;6.50;;
1577;SDS011;57623;53.608;10.004;2023-05-06T04:46:56;6.93;;;6.33;;
1577;SDS011;57623;53.608;10.004;2023-05-06T04:49:24;9.00;;;6.97;;
1577;SDS011;57623;53.608;10.004;2023-05-06T04:51:52;8.57;;;6.63;;
1577;SDS011;57623;53.608;10.004;2023-05-06T04:54:20;7.73;;;6.93;;
1577;SDS011;57623;53.608;10.004;2023-05-06T04:56:48;7.67;;;6.70;;
1577;SDS011;57623;53.608;10.004;2023-05-06T04:59:17;8.50;;;6.77;;
1577;SDS011;57623;53.608;10.004;2023-05-06T05:01:45;8.27;;;6.83;;
1577;SDS011;57623;53.608;10.004;2023-05-06T05:04:14;7.07;;;6.37;;
1577;SDS011;57623;53.608;10.004;2023-05-06T05:06:43;9.43;;;7.50;;
1577;SDS011;57623;53.608;10.004;2023-05-06T05:09:11;7.27;;;6.53;;
1577;SDS011;57623;53.608;10.004;2023-05-06T05:11:38;7.80;;;7.00;;
1577;SDS011;57623;53.608;10.004;2023-05-06T05:14:06;7.90;;;7.17;;
1577;SDS011;57623;53.608;10.004;2023-05-06T05:16:34;8.47;;;7.17;;
1577;SDS011;57623;53.608;10.004;2023-05-06T05:19:02;6.70;;;6.10;;
1577;SDS011;57623;53.608;10.004;2023-05-06T05:21:35;7.90;;;7.00;;
1577;SDS011;57623;53.608;10.004;2023-05-06T05:24:03;9.13;;;6.80;;
1577;SDS011;57623;53.608;10.004;2023-05-06T05:26:32;9.37;;;6.90;;
1577;SDS011;57623;53.608;10.004;2023-05-06T05:29:00;8.00;;;6.70;;
1577;SDS011;57623;53.608;10.004;2023-05-06T05:31:28;9.77;;;7.80;;
1577;SDS011;57623;53.608;10.004;2023-05-06T05:33:56;7.40;;;6.40;;
1577;SDS011;57623;53.608;10.004;2023-05-06T05:36:24;7.60;;;6.90;;
1577;SDS011;57623;53.608;10.004;2023-05-06T05:38:54;8.47;;;7.60;;
1577;SDS011;57623;53.608;10.004;2023-05-06T05:41:22;8.47;;;7.67;;
1577;SDS011;57623;53.608;10.004;2023-05-06T05:43:51;9.03;;;7.60;;
1577;SDS011;57623;53.608;10.004;2023-05-06T05:46:19;7.87;;;7.07;;
1577;SDS011;57623;53.608;10.004;2023-05-06T05:48:47;11.40;;;7.53;;
1577;SDS011;57623;53.608;10.004;2023-05-06T05:51:15;10.60;;;7.57;;
1577;SDS011;57623;53.608;10.004;2023-05-06T05:53:43;10.40;;;7.70;;
1577;SDS011;57623;53.608;10.004;2023-05-06T05:56:13;8.80;;;7.90;;
1577;SDS011;57623;53.608;10.004;2023-05-06T05:58:41;8.77;;;7.97;;
1577;SDS011;57623;53.608;10.004;2023-05-06T06:01:09;8.80;;;7.90;;
1577;SDS011;57623;53.608;10.004;2023-05-06T06:03:37;8.13;;;7.43;;
1577;SDS011;57623;53.608;10.004;2023-05-06T06:06:05;9.23;;;7.80;;
1577;SDS011;57623;53.608;10.004;2023-05-06T06:08:33;8.77;;;7.60;;
1577;SDS011;57623;53.608;10.004;2023-05-06T06:11:02;8.53;;;7.37;;
1577;SDS011;57623;53.608;10.004;2023-05-06T06:13:32;8.30;;;7.43;;
1577;SDS011;57623;53.608;10.004;2023-05-06T06:16:00;8.20;;;7.43;;
1577;SDS011;57623;53.608;10.004;2023-05-06T06:18:28;8.63;;;7.73;;
1577;SDS011;57623;53.608;10.004;2023-05-06T06:20:56;11.00;;;7.57;;
1577;SDS011;57623;53.608;10.004;2023-05-06T06:23:24;8.10;;;7.40;;
1577;SDS011;57623;53.608;10.004;2023-05-06T06:25:52;8.80;;;7.87;;
1577;SDS011;57623;53.608;10.004;2023-05-06T06:28:20;10.73;;;7.73;;
1577;SDS011;57623;53.608;10.004;2023-05-06T06:30:52;8.73;;;7.87;;
1577;SDS011;57623;53.608;10.004;2023-05-06T06:33:20;8.50;;;7.60;;
1577;SDS011;57623;53.608;10.004;2023-05-06T06:35:48;8.60;;;7.67;;
1577;SDS011;57623;53.608;10.004;2023-05-06T06:38:16;8.07;;;7.27;;
1577;SDS011;57623;53.608;10.004;2023-05-06T06:40:44;10.90;;;8.40;;
1577;SDS011;57623;53.608;10.004;2023-05-06T06:43:12;10.40;;;8.30;;
1577;SDS011;57623;53.608;10.004;2023-05-06T06:45:40;8.50;;;7.70;;
1577;SDS011;57623;53.608;10.004;2023-05-06T06:48:17;8.10;;;7.40;;
1577;SDS011;57623;53.608;10.004;2023-05-06T06:50:45;10.37;;;8.40;;
1577;SDS011;57623;53.608;10.004;2023-05-06T06:53:13;9.43;;;7.83;;
1577;SDS011;57623;53.608;10.004;2023-05-06T06:55:41;9.13;;;7.80;;
1577;SDS011;57623;53.608;10.004;2023-05-06T06:58:10;8.50;;;7.63;;
1577;SDS011;57623;53.608;10.004;2023-05-06T07:00:38;8.10;;;7.40;;
1577;SDS011;57623;53.608;10.004;2023-05-06T07:03:06;8.70;;;7.87;;
1577;SDS011;57623;53.608;10.004;2023-05-06T07:05:36;8.90;;;8.00;;
1577;SDS011;57623;53.608;10.004;2023-05-06T07:08:04;9.83;;;7.93;;
1577;SDS011;57623;53.608;10.004;2023-05-06T07:10:32;8.77;;;7.87;;
1577;SDS011;57623;53.608;10.004;2023-05-06T07:13:01;9.10;;;7.77;;
1577;SDS011;57623;53.608;10.004;2023-05-06T07:15:29;8.90;;;8.00;;
1577;SDS011;57623;53.608;10.004;2023-05-06T07:17:56;9.70;;;8.17;;
1577;SDS011;57623;53.608;10.004;2023-05-06T07:20:24;8.40;;;7.60;;
1577;SDS011;57623;53.608;10.004;2023-05-06T07:22:54;10.63;;;8.30;;
1577;SDS011;57623;53.608;10.004;2023-05-06T07:25:22;8.97;;;8.07;;
1577;SDS011;57623;53.608;10.004;2023-05-06T07:27:50;9.10;;;8.13;;
1577;SDS011;57623;53.608;10.004;2023-05-06T07:30:18;8.50;;;7.70;;
1577;SDS011;57623;53.608;10.004;2023-05-06T07:32:48;8.90;;;8.10;;
1577;SDS011;57623;53.608;10.004;2023-05-06T07:35:16;10.40;;;8.30;;
1577;SDS011;57623;53.608;10.004;2023-05-06T07:37:45;9.90;;;7.43;;
1577;SDS011;57623;53.608;10.004;2023-05-06T07:40:14;9.80;;;8.50;;
1577;SDS011;57623;53.608;10.004;2023-05-06T07:42:42;8.90;;;8.20;;
1577;SDS011;57623;53.608;10.004;2023-05-06T07:45:10;9.50;;;8.57;;
1577;SDS011;57623;53.608;10.004;2023-05-06T07:47:38;9.30;;;8.20;;
1577;SDS011;57623;53.608;10.004;2023-05-06T07:50:06;9.70;;;8.80;;
1577;SDS011;57623;53.608;10.004;2023-05-06T07:52:35;8.33;;;7.50;;
1577;SDS011;57623;53.608;10.004;2023-05-06T07:55:04;9.40;;;8.50;;
1577;SDS011;57623;53.608;10.004;2023-05-06T07:57:36;9.33;;;8.40;;
1577;SDS011;57623;53.608;10.004;2023-05-06T08:00:04;9.10;;;8.23;;
1577;SDS011;57623;53.608;10.004;2023-05-06T08:02:35;9.37;;;8.40;;
1577;SDS011;57623;53.608;10.004;2023-05-06T08:05:04;10.70;;;8.87;;
1577;SDS011;57623;53.608;10.004;2023-05-06T08:07:34;8.50;;;7.63;;
1577;SDS011;57623;53.608;10.004;2023-05-06T08:10:02;9.90;;;8.37;;
1577;SDS011;57623;53.608;10.004;2023-05-06T08:12:31;8.93;;;8.13;;
1577;SDS011;57623;53.608;10.004;2023-05-06T08:15:00;9.70;;;8.70;;
1577;SDS011;57623;53.608;10.004;2023-05-06T08:17:28;9.20;;;8.17;;
1577;SDS011;57623;53.608;10.004;2023-05-06T08:19:56;10.37;;;9.47;;
1577;SDS011;57623;53.608;10.004;2023-05-06T08:22:24;8.17;;;7.47;;
1577;SDS011;57623;53.608;10.004;2023-05-06T08:24:52;11.00;;;9.70;;
1577;SDS011;57623;53.608;10.004;2023-05-06T08:27:21;10.77;;;9.30;;
1577;SDS011;57623;53.608;10.004;2023-05-06T08:29:49;9.57;;;8.20;;
1577;SDS011;57623;53.608;10.004;2023-05-06T08:32:18;10.00;;;7.87;;
1577;SDS011;57623;53.608;10.004;2023-05-06T08:34:46;8.23;;;7.47;;
1577;SDS011;57623;53.608;10.004;2023-05-06T08:37:14;9.83;;;8.90;;
1577;SDS011;57623;53.608;10.004;2023-05-06T08:39:42;8.50;;;7.60;;
1577;SDS011;57623;53.608;10.004;2023-05-06T08:42:11;11.13;;;8.93;;
1577;SDS011;57623;53.608;10.004;2023-05-06T08:44:39;9.87;;;8.80;;
1577;SDS011;57623;53.608;10.004;2023-05-06T08:47:09;9.43;;;8.37;;
1577;SDS011;57623;53.608;10.004;2023-05-06T08:49:38;8.80;;;7.90;;
1577;SDS011;57623;53.608;10.004;2023-05-06T08:52:06;9.67;;;8.73;;
1577;SDS011;57623;53.608;10.004;2023-05-06T08:54:35;9.57;;;8.70;;
1577;SDS011;57623;53.608;10.004;2023-05-06T08:57:05;10.37;;;8.27;;
1577;SDS011;57623;53.608;10.004;2023-05-06T08:59:38;9.30;;;8.60;;
1577;SDS011;57623;53.608;10.004;2023-05-06T09:02:07;9.70;;;8.40;;
1577;SDS011;57623;53.608;10.004;2023-05-06T09:04:37;9.90;;;8.90;;
1577;SDS011;57623;53.608;10.004;2023-05-06T09:07:06;9.50;;;8.47;;
1577;SDS011;57623;53.608;10.004;2023-05-06T09:09:34;10.23;;;9.27;;
1577;SDS011;57623;53.608;10.004;2023-05-06T09:12:03;11.13;;;9.10;;
1577;SDS011;57623;53.608;10.004;2023-05-06T09:14:36;9.23;;;8.30;;
1577;SDS011;57623;53.608;10.004;2023-05-06T09:17:04;10.70;;;9.20;;
1577;SDS011;57623;53.608;10.004;2023-05-06T09:19:44;9.67;;;8.77;;
1577;SDS011;57623;53.608;10.004;2023-05-06T09:22:13;11.67;;;10.50;;
1577;SDS011;57623;53.608;10.004;2023-05-06T09:24:41;10.13;;;8.93;;
1577;SDS011;57623;53.608;10.004;2023-05-06T09:27:09;9.90;;;8.90;;
1577;SDS011;57623;53.608;10.004;2023-05-06T09:29:40;9.60;;;8.70;;
1577;SDS011;57623;53.608;10.004;2023-05-06T09:32:26;10.50;;;9.50;;
1577;SDS011;57623;53.608;10.004;2023-05-06T09:34:55;13.10;;;9.50;;
1577;SDS011;57623;53.608;10.004;2023-05-06T09:37:24;10.87;;;9.77;;
1577;SDS011;57623;53.608;10.004;2023-05-06T09:39:52;10.93;;;9.87;;
1577;SDS011;57623;53.608;10.004;2023-05-06T09:42:21;10.53;;;9.53;;
1577;SDS011;57623;53.608;10.004;2023-05-06T09:44:52;9.90;;;9.00;;
1577;SDS011;57623;53.608;10.004;2023-05-06T09:47:20;10.53;;;9.50;;
1577;SDS011;57623;53.608;10.004;2023-05-06T09:49:50;9.60;;;8.70;;
1577;SDS011;57623;53.608;10.004;2023-05-06T09:52:23;11.23;;;8.93;;
1577;SDS011;57623;53.608;10.004;2023-05-06T09:54:52;9.90;;;8.90;;
1577;SDS011;57623;53.608;10.004;2023-05-06T09:57:21;10.20;;;9.20;;
1577;SDS011;57623;53.608;10.004;2023-05-06T09:59:49;10.90;;;9.80;;
1577;SDS011;57623;53.608;10.004;2023-05-06T10:02:18;11.20;;;10.10;;
1577;SDS011;57623;53.608;10.004;2023-05-06T10:04:49;10.80;;;9.80;;
1577;SDS011;57623;53.608;10.004;2023-05-06T10:07:18;10.63;;;9.50;;
1577;SDS011;57623;53.608;10.004;2023-05-06T10:09:50;11.47;;;10.37;;
1577;SDS011;57623;53.608;10.004;2023-05-06T10:12:18;13.83;;;10.60;;
1577;SDS011;57623;53.608;10.004;2023-05-06T10:14:47;10.70;;;9.70;;
1577;SDS011;57623;53.608;10.004;2023-05-06T10:17:14;10.73;;;9.67;;
1577;SDS011;57623;53.608;10.004;2023-05-06T10:19:45;11.10;;;10.00;;
1577;SDS011;57623;53.608;10.004;2023-05-06T10:22:18;14.83;;;9.97;;
1577;SDS011;57623;53.608;10.004;2023-05-06T10:24:57;11.87;;;10.60;;
1577;SDS011;57623;53.608;10.004;2023-05-06T10:27:26;10.57;;;9.57;;
1577;SDS011;57623;53.608;10.004;2023-05-06T10:29:57;11.40;;;10.23;;
1577;SDS011;57623;53.608;10.004;2023-05-06T10:32:27;12.67;;;11.30;;
1577;SDS011;57623;53.608;10.004;2023-05-06T10:35:00;11.70;;;10.50;;
1577;SDS011;57623;53.608;10.004;2023-05-06T10:37:36;12.33;;;9.80;;
1577;SDS011;57623;53.608;10.004;2023-05-06T10:40:08;10.27;;;9.27;;
1577;SDS011;57623;53.608;10.004;2023-05-06T10:42:38;11.43;;;9.17;;
1577;SDS011;57623;53.608;10.004;2023-05-06T10:45:06;11.37;;;10.27;;
1577;SDS011;57623;53.608;10.004;2023-05-06T10:50:35;11.30;;;10.20;;
1577;SDS011;57623;53.608;10.004;2023-05-06T10:53:04;12.07;;;10.73;;
1577;SDS011;57623;53.608;10.004;2023-05-06T10:55:33;11.03;;;9.93;;
1577;SDS011;57623;53.608;10.004;2023-05-06T10:58:04;11.53;;;10.43;;
1577;SDS011;57623;53.608;10.004;2023-05-06T11:00:38;10.80;;;9.27;;
1577;SDS011;57623;53.608;10.004;2023-05-06T11:03:09;10.43;;;9.27;;
1577;SDS011;57623;53.608;10.004;2023-05-06T11:05:47;10.20;;;9.23;;
1577;SDS011;57623;53.608;10.004;2023-05-06T11:08:20;11.03;;;10.03;;
1577;SDS011;57623;53.608;10.004;2023-05-06T11:10:50;10.40;;;9.30;;
1577;SDS011;57623;53.608;10.004;2023-05-06T11:13:22;10.23;;;9.23;;
1577;SDS011;57623;53.608;10.004;2023-05-06T11:15:51;11.90;;;9.40;;
1577;SDS011;57623;53.608;10.004;2023-05-06T11:24:10;10.43;;;9.30;;
1577;SDS011;57623;53.608;10.004;2023-05-06T11:26:41;9.33;;;8.43;;
1577;SDS011;57623;53.608;10.004;2023-05-06T11:29:14;9.60;;;8.80;;
1577;SDS011;57623;53.608;10.004;2023-05-06T11:31:42;10.80;;;9.30;;
1577;SDS011;57623;53.608;10.004;2023-05-06T11:34:12;9.97;;;8.93;;
1577;SDS011;57623;53.608;10.004;2023-05-06T11:36:47;10.03;;;8.90;;
1577;SDS011;57623;53.608;10.004;2023-05-06T11:39:17;10.17;;;9.10;;
1577;SDS011;57623;53.608;10.004;2023-05-06T11:41:47;10.53;;;9.53;;
1577;SDS011;57623;53.608;10.004;2023-05-06T11:44:25;10.60;;;9.50;;
1577;SDS011;57623;53.608;10.004;2023-05-06T11:46:55;11.00;;;9.77;;
1577;SDS011;57623;53.608;10.004;2023-05-06T11:49:27;9.30;;;8.40;;
1577;SDS011;57623;53.608;10.004;2023-05-06T11:51:55;12.53;;;9.90;;
1577;SDS011;57623;53.608;10.004;2023-05-06T11:54:24;10.83;;;9.70;;
1577;SDS011;57623;53.608;10.004;2023-05-06T11:56:54;11.20;;;10.07;;
1577;SDS011;57623;53.608;10.004;2023-05-06T11:59:27;10.97;;;9.93;;
1577;SDS011;57623;53.608;10.004;2023-05-06T12:01:57;10.70;;;9.60;;
1577;SDS011;57623;53.608;10.004;2023-05-06T12:04:26;10.63;;;9.53;;
1577;SDS011;57623;53.608;10.004;2023-05-06T12:06:54;13.87;;;9.80;;
1577;SDS011;57623;53.608;10.004;2023-05-06T12:09:23;10.07;;;8.97;;
1577;SDS011;57623;53.608;10.004;2023-05-06T12:11:51;10.57;;;9.20;;
1577;SDS011;57623;53.608;10.004;2023-05-06T12:14:23;11.30;;;10.10;;
1577;SDS011;57623;53.608;10.004;2023-05-06T12:16:51;10.10;;;9.10;;
1577;SDS011;57623;53.608;10.004;2023-05-06T12:19:21;11.20;;;9.53;;
1577;SDS011;57623;53.608;10.004;2023-05-06T12:21:49;11.43;;;9.40;;
1577;SDS011;57623;53.608;10.004;2023-05-06T12:24:25;12.03;;;9.17;;
1577;SDS011;57623;53.608;10.004;2023-05-06T12:26:54;10.23;;;9.23;;
1577;SDS011;57623;53.608;10.004;2023-05-06T12:29:23;10.13;;;9.20;;
1577;SDS011;57623;53.608;10.004;2023-05-06T12:32:05;11.87;;;9.27;;
1577;SDS011;57623;53.608;10.004;2023-05-06T12:34:37;12.80;;;9.90;;
1577;SDS011;57623;53.608;10.004;2023-05-06T12:37:06;17.13;;;10.40;;
1577;SDS011;57623;53.608;10.004;2023-05-06T12:39:35;11.53;;;10.43;;
1577;SDS011;57623;53.608;10.004;2023-05-06T12:42:04;11.80;;;10.60;;
1577;SDS011;57623;53.608;10.004;2023-05-06T12:44:34;10.63;;;9.53;;
1577;SDS011;57623;53.608;10.004;2023-05-06T12:47:04;11.50;;;10.17;;
1577;SDS011;57623;53.608;10.004;2023-05-06T12:49:46;11.70;;;10.60;;
1577;SDS011;57623;53.608;10.004;2023-05-06T12:52:15;10.83;;;9.73;;
1577;SDS011;57623;53.608;10.004;2023-05-06T12:54:44;12.03;;;10.73;;
1577;SDS011;57623;53.608;10.004;2023-05-06T12:57:13;12.30;;;11.10;;
1577;SDS011;57623;53.608;10.004;2023-05-06T12:59:43;10.83;;;9.80;;
1577;SDS011;57623;53.608;10.004;2023-05-06T13:02:11;11.47;;;10.37;;
1577;SDS011;57623;53.608;10.004;2023-05-06T13:04:40;10.90;;;9.87;;
1577;SDS011;57623;53.608;10.004;2023-05-06T13:07:09;11.37;;;10.00;;
1577;SDS011;57623;53.608;10.004;2023-05-06T13:09:37;12.03;;;10.50;;
1577;SDS011;57623;53.608;10.004;2023-05-06T13:12:05;10.53;;;9.60;;
1577;SDS011;57623;53.608;10.004;2023-05-06T13:14:33;12.10;;;10.90;;
1577;SDS011;57623;53.608;10.004;2023-05-06T13:17:06;11.20;;;10.13;;
1577;SDS011;57623;53.608;10.004;2023-05-06T13:19:35;12.57;;;11.27;;
1577;SDS011;57623;53.608;10.004;2023-05-06T13:22:03;12.30;;;11.10;;
1577;SDS011;57623;53.608;10.004;2023-05-06T13:24:31;11.90;;;10.70;;
1577;SDS011;57623;53.608;10.004;2023-05-06T13:26:59;11.67;;;10.50;;
1577;SDS011;57623;53.608;10.004;2023-05-06T13:29:27;11.90;;;10.77;;
1577;SDS011;57623;53.608;10.004;2023-05-06T13:31:55;10.60;;;9.50;;
1577;SDS011;57623;53.608;10.004;2023-05-06T13:34:25;11.10;;;10.00;;
1577;SDS011;57623;53.608;10.004;2023-05-06T13:36:53;10.70;;;9.70;;
1577;SDS011;57623;53.608;10.004;2023-05-06T13:39:22;13.80;;;11.00;;
1577;SDS011;57623;53.608;10.004;2023-05-06T13:41:51;10.73;;;9.73;;
1577;SDS011;57623;53.608;10.004;2023-05-06T13:44:19;11.80;;;9.53;;
1577;SDS011;57623;53.608;10.004;2023-05-06T13:46:49;10.20;;;9.20;;
1577;SDS011;57623;53.608;10.004;2023-05-06T13:49:18;11.20;;;9.80;;
1577;SDS011;57623;53.608;10.004;2023-05-06T13:51:47;11.03;;;10.00;;
1577;SDS011;57623;53.608;10.004;2023-05-06T13:54:15;10.40;;;9.40;;
1577;SDS011;57623;53.608;10.004;2023-05-06T13:56:43;10.60;;;9.60;;
1577;SDS011;57623;53.608;10.004;2023-05-06T13:59:11;11.80;;;10.00;;
1577;SDS011;57623;53.608;10.004;2023-05-06T14:01:40;11.23;;;10.03;;
1577;SDS011;57623;53.608;10.004;2023-05-06T14:04:08;11.30;;;10.30;;
1577;SDS011;57623;53.608;10.004;2023-05-06T14:06:36;11.80;;;10.27;;
1577;SDS011;57623;53.608;10.004;2023-05-06T14:09:05;11.20;;;10.20;;
1577;SDS011;57623;53.608;10.004;2023-05-06T14:11:34;13.70;;;12.30;;
1577;SDS011;57623;53.608;10.004;2023-05-06T14:14:02;11.33;;;10.20;;
1577;SDS011;57623;53.608;10.004;2023-05-06T14:16:30;12.40;;;10.90;;
1577;SDS011;57623;53.608;10.004;2023-05-06T14:18:58;11.37;;;10.17;;
1577;SDS011;57623;53.608;10.004;2023-05-06T14:21:26;11.87;;;10.80;;
1577;SDS011;57623;53.608;10.004;2023-05-06T14:23:54;11.60;;;10.50;;
1577;SDS011;57623;53.608;10.004;2023-05-06T14:26:23;12.67;;;11.37;;
1577;SDS011;57623;53.608;10.004;2023-05-06T14:28:52;12.70;;;11.50;;
1577;SDS011;57623;53.608;10.004;2023-05-06T14:31:19;13.40;;;11.97;;
1577;SDS011;57623;53.608;10.004;2023-05-06T14:33:48;12.33;;;11.10;;
1577;SDS011;57623;53.608;10.004;2023-05-06T14:36:17;12.10;;;11.00;;
1577;SDS011;57623;53.608;10.004;2023-05-06T14:38:45;12.50;;;11.20;;
1577;SDS011;57623;53.608;10.004;2023-05-06T14:41:13;12.03;;;10.50;;
1577;SDS011;57623;53.608;10.004;2023-05-06T14:43:43;11.40;;;10.20;;
1577;SDS011;57623;53.608;10.004;2023-05-06T14:46:11;11.83;;;10.83;;
1577;SDS011;57623;53.608;10.004;2023-05-06T14:48:41;12.13;;;11.13;;
1577;SDS011;57623;53.608;10.004;2023-05-06T14:51:10;10.77;;;9.70;;
1577;SDS011;57623;53.608;10.004;2023-05-06T14:53:38;11.00;;;10.00;;
1577;SDS011;57623;53.608;10.004;2023-05-06T14:56:06;11.83;;;10.73;;
1577;SDS011;57623;53.608;10.004;2023-05-06T14:58:35;11.83;;;10.70;;
1577;SDS011;57623;53.608;10.004;2023-05-06T15:01:05;10.87;;;9.97;;